Time;durP1;ratioP1;P1;durP2;ratioP2;P2;SDS_P1;SDS_P2;PMS_P1;PMS_P2;Temp;Humidity;BMP_temperature;BMP_pressure;BME280_temperature;BME280_humidity;BME280_pressure;Samples;Min_cycle;Max_cycle;Signal;HPM_P1;HPM_P2
2023/06/02 07:01:17;;;;;;;1.37;1.37;;;13.20;99.90;16.00;102064.00;;;;6308793;22;20175;-67
2023/06/02 07:03:44;;;;;;;1.50;1.50;;;13.50;99.90;15.60;101993.00;;;;6282518;22;20576;-67
2023/06/02 07:06:12;;;;;;;0.60;0.60;;;13.30;99.90;15.20;102069.00;;;;6281601;22;20875;-67
2023/06/02 07:08:50;;;;;;;0.10;0.10;;;13.20;99.90;15.60;102052.00;;;;6282382;22;20156;-67
2023/06/02 07:11:16;;;;;;;3.87;0.77;;;13.10;99.90;15.00;102051.00;;;;6282587;22;20145;-67
2023/06/02 07:13:44;;;;;;;0.50;0.50;;;13.00;99.90;15.90;102065.00;;;;6256416;22;20156;-67
2023/06/02 07:16:19;;;;;;;0.30;0.20;;;13.10;99.90;15.30;102051.00;;;;6282402;22;20273;-67
2023/06/02 07:19:10;;;;;;;1.60;0.50;;;13.10;99.90;16.00;102068.00;;;;6282328;22;20147;-66
2023/06/02 07:22:06;;;;;;;0.23;0.23;;;13.40;99.90;15.50;102066.00;;;;6308897;22;20141;-67
2023/06/02 07:24:55;;;;;;;1.60;0.67;;;13.30;99.90;15.90;102076.00;;;;6281417;22;20160;-67
2023/06/02 07:27:56;;;;;;;0.40;0.40;;;13.50;99.90;16.00;102014.00;;;;6237679;22;20466;-67
2023/06/02 07:30:48;;;;;;;0.40;0.40;;;13.50;99.90;15.90;102011.00;;;;6280804;22;20157;-66
2023/06/02 07:33:24;;;;;;;0.20;0.20;;;13.40;99.90;16.00;102066.00;;;;6281509;22;20199;-67
2023/06/02 07:35:50;;;;;;;0.37;0.37;;;13.40;99.90;16.00;102075.00;;;;6281738;22;20147;-67
2023/06/02 07:38:22;;;;;;;0.70;0.70;;;13.50;99.90;15.90;102076.00;;;;6308420;22;20883;-67
2023/06/02 07:40:47;;;;;;;0.50;0.50;;;13.50;99.90;16.60;102017.00;;;;6256024;22;20471;-67
2023/06/02 07:43:41;;;;;;;2.03;1.50;;;13.70;99.90;16.20;102072.00;;;;6281851;22;20174;-67
2023/06/02 07:46:08;;;;;;;1.17;0.97;;;13.60;99.90;16.50;102088.00;;;;6281700;22;20160;-67
2023/06/02 07:48:34;;;;;;;0.20;0.20;;;13.80;99.90;16.40;102080.00;;;;6255656;22;20181;-67
2023/06/02 07:51:00;;;;;;;0.40;0.40;;;13.70;99.90;15.30;102075.00;;;;6256305;22;20478;-67
2023/06/02 07:53:26;;;;;;;0.73;0.73;;;13.50;99.90;15.30;102068.00;;;;6281878;22;20148;-67
2023/06/02 07:56:11;;;;;;;5.60;1.37;;;13.30;99.90;15.60;102065.00;;;;6281342;22;20472;-74
2023/06/02 07:58:42;;;;;;;0.20;0.20;;;13.40;99.90;15.70;102075.00;;;;6258691;22;20160;-73
2023/06/02 08:01:16;;;;;;;0.67;0.67;;;13.40;99.90;16.40;102083.00;;;;6275802;22;20169;-72
2023/06/02 08:03:56;;;;;;;1.73;0.87;;;13.60;99.90;15.60;102089.00;;;;6277534;22;20615;-71
2023/06/02 08:06:30;;;;;;;0.37;0.37;;;13.70;99.90;16.00;102089.00;;;;6276394;22;20140;-76
2023/06/02 08:08:56;;;;;;;5.80;1.20;;;13.50;99.90;15.50;102094.00;;;;6278035;22;20142;-76
2023/06/02 08:11:24;;;;;;;0.97;0.90;;;13.60;99.90;15.40;102061.00;;;;6276668;22;20140;-77
2023/06/02 08:13:53;;;;;;;4.20;0.90;;;13.50;99.90;16.00;102093.00;;;;6276466;22;20191;-68
2023/06/02 08:16:28;;;;;;;0.23;0.23;;;13.70;99.90;15.70;102081.00;;;;6277848;22;20195;-75
2023/06/02 08:18:53;;;;;;;1.80;1.27;;;13.60;99.90;15.60;102072.00;;;;6250668;22;20239;-66
2023/06/02 08:21:20;;;;;;;0.67;0.67;;;13.60;99.90;15.50;102086.00;;;;6277984;22;20172;-67
2023/06/02 08:23:46;;;;;;;6.20;1.17;;;13.50;99.90;15.70;102090.00;;;;6277746;22;20176;-67
2023/06/02 08:26:12;;;;;;;1.10;1.10;;;13.60;99.90;15.80;102085.00;;;;6276576;22;20164;-66
2023/06/02 08:29:00;;;;;;;0.70;0.70;;;13.70;99.90;16.70;102077.00;;;;6276268;22;20228;-66
2023/06/02 08:31:28;;;;;;;0.33;0.33;;;13.90;99.90;17.10;102096.00;;;;6277237;22;20236;-67
2023/06/02 08:34:12;;;;;;;0.50;0.50;;;14.20;99.90;16.00;102092.00;;;;6277433;22;20371;-67
2023/06/02 08:36:38;;;;;;;2.63;1.40;;;14.00;99.90;15.60;102106.00;;;;6250526;22;20168;-71
2023/06/02 08:39:07;;;;;;;1.80;1.33;;;13.80;99.90;16.30;102082.00;;;;6250349;22;20476;-67
2023/06/02 08:41:46;;;;;;;1.13;1.00;;;13.80;99.90;16.50;102078.00;;;;6275498;22;20579;-67
2023/06/02 08:44:13;;;;;;;1.13;1.03;;;13.80;99.90;17.00;102081.00;;;;6273516;22;20161;-67
2023/06/02 08:46:39;;;;;;;0.30;0.30;;;14.00;99.90;16.90;102094.00;;;;6250540;22;20809;-67
2023/06/02 08:49:14;;;;;;;1.80;1.13;;;14.30;99.90;16.50;102111.00;;;;6276254;22;20143;-68
2023/06/02 08:51:44;;;;;;;1.80;1.70;;;14.20;99.90;17.80;102101.00;;;;6275786;22;20137;-67
2023/06/02 08:54:16;;;;;;;0.20;0.20;;;14.50;99.90;17.20;102119.00;;;;6250485;22;20235;-68
2023/06/02 08:56:43;;;;;;;0.20;0.20;;;14.60;99.90;17.30;102113.00;;;;6275414;22;20141;-69
2023/06/02 08:59:20;;;;;;;0.33;0.33;;;14.70;99.90;16.70;102113.00;;;;6281638;22;20258;-67
2023/06/02 09:01:47;;;;;;;0.60;0.47;;;14.60;99.90;17.90;102112.00;;;;6251969;22;20176;-66
2023/06/02 09:05:06;;;;;;;11.57;1.63;;;14.80;99.90;16.70;102130.00;;;;6279555;22;20139;-65
2023/06/02 09:07:35;;;;;;;6.50;2.20;;;15.20;99.90;16.50;102146.00;;;;6280477;22;20153;-65
2023/06/02 09:10:04;;;;;;;0.93;0.57;;;14.60;99.90;16.50;102117.00;;;;6307809;22;20176;-65
2023/06/02 09:12:48;;;;;;;1.60;1.30;;;14.30;99.90;16.00;102122.00;;;;6280163;22;20158;-65
2023/06/02 09:15:15;;;;;;;3.60;2.63;;;14.20;99.90;17.50;102118.00;;;;6280066;22;20172;-65
2023/06/02 09:17:41;;;;;;;0.10;0.10;;;14.50;99.90;18.00;102100.00;;;;6279024;22;20259;-65
2023/06/02 09:20:30;;;;;;;1.03;0.80;;;14.80;99.90;17.30;102125.00;;;;6280715;22;20146;-71
2023/06/02 09:22:58;;;;;;;20.93;1.30;;;15.00;99.90;18.30;102115.00;;;;6278378;22;20233;-68
2023/06/02 09:25:30;;;;;;;7.43;0.67;;;15.40;99.90;18.10;102119.00;;;;6280082;22;20203;-68
2023/06/02 09:28:06;;;;;;;0.23;0.23;;;15.40;99.90;17.60;102126.00;;;;6302436;22;20216;-67
2023/06/02 09:31:03;;;;;;;0.20;0.20;;;15.10;99.90;18.70;102113.00;;;;6279949;22;20170;-66
2023/06/02 09:33:32;;;;;;;0.10;0.10;;;15.40;99.90;18.70;102090.00;;;;6279690;22;20192;-66
2023/06/02 09:35:58;;;;;;;0.93;0.80;;;15.70;99.90;17.10;102128.00;;;;6280202;22;20237;-66
2023/06/02 09:38:43;;;;;;;0.43;0.43;;;15.00;99.90;19.50;102057.00;;;;6280324;22;20147;-66
2023/06/02 09:41:20;;;;;;;0.20;0.20;;;15.70;99.90;19.90;102093.00;;;;6280346;22;20608;-66
2023/06/02 09:44:16;;;;;;;4.60;1.13;;;16.70;99.90;18.00;102133.00;;;;6279807;22;20170;-67
2023/06/02 09:47:03;;;;;;;0.13;0.13;;;16.40;99.90;18.90;102117.00;;;;6274228;22;20157;-67
2023/06/02 09:49:41;;;;;;;1.23;0.77;;;16.30;99.90;18.80;102115.00;;;;6306937;22;20562;-66
2023/06/02 09:52:22;;;;;;;0.40;0.40;;;16.20;99.90;19.00;102111.00;;;;6280746;22;20607;-67
2023/06/02 09:55:27;;;;;;;0.10;0.10;;;16.00;99.90;20.70;102085.00;;;;6280000;22;20145;-68
2023/06/02 09:58:20;;;;;;;0.40;0.40;;;16.50;99.90;18.00;102152.00;;;;6278827;22;20167;-66
2023/06/02 10:01:10;;;;;;;1.33;1.23;;;16.20;99.90;16.90;102167.00;;;;6278872;22;20604;-66
2023/06/02 10:03:36;;;;;;;0.20;0.20;;;15.10;99.90;18.40;102122.00;;;;6306724;22;20243;-66
2023/06/02 10:06:15;;;;;;;0.73;0.73;;;15.50;99.90;19.70;102075.00;;;;6280252;22;20779;-69
2023/06/02 10:09:18;;;;;;;4.63;1.13;;;16.10;99.90;18.90;102131.00;;;;6307087;22;20232;-66
2023/06/02 10:12:50;;;;;;;0.63;0.63;;;16.20;99.90;18.40;102139.00;;;;6307077;22;20208;-66
2023/06/02 10:15:34;;;;;;;1.07;1.07;;;16.20;99.90;19.60;102114.00;;;;6254789;22;20238;-66
2023/06/02 10:18:50;;;;;;;5.10;1.17;;;16.30;99.90;18.70;102141.00;;;;6307251;22;20146;-66
2023/06/02 10:33:49;;;;;;;0.30;0.30;;;16.20;99.90;20.10;102099.00;;;;5143929;27;20303;-65
2023/06/02 10:36:18;;;;;;;0.40;0.40;;;16.80;99.90;20.70;102084.00;;;;5113179;27;20257;-65
2023/06/02 10:38:47;;;;;;;0.17;0.17;;;17.40;99.90;22.10;102047.00;;;;5115048;28;20187;-65
2023/06/02 10:41:14;;;;;;;1.10;0.98;;;18.10;99.90;21.10;102066.00;;;;5123045;27;20182;-64
2023/06/02 10:44:25;;;;;;;0.10;0.10;;;18.30;99.90;20.60;102069.00;;;;5135790;27;20194;-66
2023/06/02 10:47:19;;;;;;;0.37;0.37;;;18.00;99.90;20.00;102086.00;;;;5113896;27;20265;-65
2023/06/02 10:49:59;;;;;;;0.40;0.40;;;17.20;99.90;20.50;102064.00;;;;5134686;27;20193;-65
2023/06/02 10:53:06;;;;;;;0.40;0.40;;;17.40;99.90;20.70;102055.00;;;;5112184;28;20210;-65
2023/06/02 10:55:34;;;;;;;0.20;0.20;;;17.90;99.90;21.60;102030.00;;;;5137419;27;20537;-65
2023/06/02 10:58:03;;;;;;;4.67;1.90;;;18.20;99.90;18.40;102105.00;;;;5126313;27;20216;-65
2023/06/02 11:00:35;;;;;;;1.90;1.70;;;17.30;99.90;18.80;102105.00;;;;5112369;27;20194;-65
2023/06/02 11:03:17;;;;;;;1.70;1.20;;;17.10;99.90;18.80;102117.00;;;;5135707;27;20609;-65
2023/06/02 11:05:52;;;;;;;1.00;1.00;;;17.00;99.90;18.80;102121.00;;;;5133417;27;20186;-64
2023/06/02 11:08:18;;;;;;;0.90;0.90;;;16.60;99.90;20.30;102084.00;;;;5100230;27;20190;-63
2023/06/02 11:10:57;;;;;;;0.50;0.50;;;17.10;99.90;22.10;102031.00;;;;5140548;27;20206;-64
2023/06/02 11:13:29;;;;;;;1.63;1.52;;;18.80;99.90;19.10;102105.00;;;;5106806;27;20626;-64
2023/06/02 11:15:55;;;;;;;0.25;0.25;;;18.10;99.90;20.80;102071.00;;;;5116655;27;20258;-64
2023/06/02 11:18:31;;;;;;;0.90;0.88;;;18.20;99.90;21.10;102059.00;;;;5116576;27;20187;-64
2023/06/02 11:21:18;;;;;;;0.38;0.38;;;18.30;99.90;21.60;102011.00;;;;5129866;27;20167;-64
2023/06/02 11:23:44;;;;;;;0.30;0.30;;;18.60;99.90;21.50;102050.00;;;;5112805;27;20175;-64
2023/06/02 11:26:18;;;;;;;4.18;1.02;;;19.10;99.90;21.20;102065.00;;;;5110375;27;20251;-64
2023/06/02 11:28:50;;;;;;;1.38;0.93;;;19.00;99.90;22.00;102039.00;;;;5120295;27;20211;-64
2023/06/02 11:31:23;;;;;;;3.53;0.98;;;18.90;99.90;23.10;102045.00;;;;5123263;27;20257;-64
2023/06/02 11:34:14;;;;;;;1.13;0.85;;;20.20;99.90;20.90;102079.00;;;;5103350;28;20230;-66
2023/06/02 11:36:40;;;;;;;0.30;0.30;;;19.60;99.90;22.00;102033.00;;;;5112993;28;20225;-67
2023/06/02 11:39:08;;;;;;;0.63;0.63;;;19.60;99.90;21.60;102024.00;;;;5129436;27;20180;-66
2023/06/02 11:41:34;;;;;;;0.57;0.57;;;19.60;99.90;22.30;102062.00;;;;5139811;27;20599;-66
2023/06/02 11:44:10;;;;;;;1.13;1.10;;;19.90;99.90;22.60;102050.00;;;;5108147;27;20191;-66
2023/06/02 11:46:36;;;;;;;1.48;1.35;;;20.10;99.90;21.80;102044.00;;;;5073208;28;20186;-66
2023/06/02 11:49:03;;;;;;;1.20;1.10;;;19.90;99.90;21.80;102047.00;;;;5100518;27;20245;-68
2023/06/02 11:51:30;;;;;;;0.50;0.50;;;19.50;99.90;20.20;102083.00;;;;5119504;27;20286;-68
2023/06/02 11:54:07;;;;;;;0.80;0.70;;;18.70;99.90;21.60;102057.00;;;;5102105;28;20183;-68
2023/06/02 11:57:15;;;;;;;0.45;0.45;;;18.80;99.90;23.10;102029.00;;;;5096900;27;20175;-69
2023/06/02 11:59:51;;;;;;;0.93;0.93;;;19.50;99.90;22.30;102017.00;;;;5087816;27;20211;-69
2023/06/02 12:02:51;;;;;;;2.03;0.82;;;19.60;99.90;20.20;102077.00;;;;5101220;28;20549;-68
2023/06/02 12:05:36;;;;;;;2.75;1.80;;;18.50;99.90;21.90;102038.00;;;;5094867;27;20266;-69
2023/06/02 12:08:24;;;;;;;0.40;0.40;;;18.60;99.90;21.60;102045.00;;;;5089778;27;20649;-69
2023/06/02 12:11:28;;;;;;;4.20;2.20;;;19.00;99.90;21.30;102040.00;;;;5070550;28;20193;-74
2023/06/02 12:14:01;;;;;;;2.63;1.50;;;19.60;99.90;21.00;102064.00;;;;5095948;28;20269;-63
2023/06/02 12:16:30;;;;;;;0.68;0.68;;;18.80;99.90;21.10;102057.00;;;;5083849;27;20184;-63
2023/06/02 12:19:22;;;;;;;1.02;0.80;;;18.50;99.90;21.00;102066.00;;;;5136183;27;20183;-63
2023/06/02 12:21:52;;;;;;;0.35;0.35;;;18.50;99.90;21.70;102053.00;;;;5084546;28;20176;-63
2023/06/02 12:25:22;;;;;;;0.70;0.70;;;18.70;99.90;21.80;102043.00;;;;5115369;27;20192;-63
2023/06/02 12:28:17;;;;;;;3.75;1.10;;;19.00;99.90;21.20;102047.00;;;;5122168;27;20183;-63
2023/06/02 12:31:41;;;;;;;0.65;0.65;;;18.90;99.90;21.60;102041.00;;;;5102386;27;20248;-63
2023/06/02 12:35:03;;;;;;;1.27;0.68;;;18.60;99.90;21.90;102044.00;;;;5110319;27;20199;-63
2023/06/02 12:38:29;;;;;;;0.80;0.63;;;18.70;99.90;21.00;102063.00;;;;5084257;28;20192;-62
2023/06/02 12:41:43;;;;;;;0.32;0.32;;;18.70;99.90;21.70;102041.00;;;;5117364;27;20183;-62
2023/06/02 12:44:09;;;;;;;0.43;0.40;;;18.90;99.90;22.40;101985.00;;;;5115335;27;20180;-62
2023/06/02 12:47:21;;;;;;;0.32;0.32;;;19.20;99.90;23.30;102023.00;;;;5105004;27;20194;-68
2023/06/02 12:50:33;;;;;;;0.20;0.20;;;19.40;99.90;22.50;102027.00;;;;5109891;27;20233;-68
2023/06/02 12:53:16;;;;;;;2.08;1.35;;;19.50;99.90;22.00;102026.00;;;;5094035;27;20202;-68
2023/06/02 12:55:42;;;;;;;1.85;1.17;;;19.60;99.90;21.40;102052.00;;;;5099903;28;20228;-68
2023/06/02 12:58:10;;;;;;;0.20;0.20;;;18.90;99.90;22.90;101978.00;;;;5102335;27;20763;-68
2023/06/02 13:01:14;;;;;;;0.40;0.40;;;19.20;99.90;22.50;101967.00;;;;5108848;27;20225;-70
2023/06/02 13:03:42;;;;;;;0.35;0.35;;;19.50;99.90;23.50;101997.00;;;;5100264;28;20296;-70
2023/06/02 13:07:00;;;;;;;0.30;0.30;;;19.60;99.90;23.30;102006.00;;;;5099535;27;20179;-70
2023/06/02 13:09:43;;;;;;;0.30;0.30;;;19.70;99.90;22.70;102004.00;;;;5122070;27;20184;-69
2023/06/02 13:12:12;;;;;;;1.38;0.57;;;19.80;99.90;23.40;101950.00;;;;5112019;27;20198;-68
2023/06/02 13:14:40;;;;;;;1.52;1.42;;;19.90;99.90;23.50;101979.00;;;;5076812;28;20193;-67
2023/06/02 13:17:13;;;;;;;4.85;2.33;;;20.20;99.90;21.80;102021.00;;;;5092283;27;20634;-68
2023/06/02 13:19:45;;;;;;;0.20;0.20;;;19.70;99.90;22.10;102015.00;;;;5105429;27;20631;-67
2023/06/02 13:22:44;;;;;;;0.20;0.20;;;19.20;99.90;21.90;102030.00;;;;5101785;27;20185;-67
2023/06/02 13:25:15;;;;;;;2.92;0.55;;;19.10;99.90;21.90;102037.00;;;;5086006;28;20581;-67
2023/06/02 13:28:09;;;;;;;0.65;0.65;;;19.00;99.90;23.70;101996.00;;;;5104147;28;20194;-67
2023/06/02 13:31:13;;;;;;;1.80;1.08;;;19.40;99.90;22.50;101984.00;;;;5087452;28;20206;-68
2023/06/02 13:34:35;;;;;;;3.20;0.93;;;19.60;99.90;22.30;102023.00;;;;5117801;27;20275;-68
2023/06/02 13:37:56;;;;;;;0.93;0.85;;;19.60;99.90;21.70;102036.00;;;;5080041;28;20188;-67
2023/06/02 13:41:04;;;;;;;1.85;1.13;;;19.00;99.90;21.70;102033.00;;;;5122920;27;20521;-68
2023/06/02 13:44:31;;;;;;;3.10;1.35;;;19.10;99.90;23.00;102015.00;;;;5104985;27;20644;-68
2023/06/02 13:47:57;;;;;;;0.57;0.57;;;19.10;99.90;23.30;102008.00;;;;5074705;27;20178;-68
2023/06/02 13:51:01;;;;;;;0.98;0.98;;;19.80;99.90;22.10;101996.00;;;;5126190;27;20186;-68
2023/06/02 13:54:16;;;;;;;2.17;1.05;;;19.60;99.90;22.00;102005.00;;;;5109915;27;20195;-68
2023/06/02 13:57:40;;;;;;;0.20;0.20;;;19.70;99.90;22.50;102008.00;;;;5095187;27;20207;-68
2023/06/02 14:01:04;;;;;;;0.40;0.40;;;19.00;99.90;22.50;102013.00;;;;5083935;27;20184;-68
2023/06/02 14:04:22;;;;;;;0.22;0.22;;;19.10;99.90;22.50;102011.00;;;;5103091;27;20534;-67
2023/06/02 14:07:36;;;;;;;0.32;0.30;;;19.40;99.90;22.30;102018.00;;;;5097053;27;20645;-67
2023/06/02 14:10:39;;;;;;;0.73;0.73;;;19.40;99.90;21.00;101997.00;;;;5115290;27;20183;-68
2023/06/02 14:13:42;;;;;;;1.77;1.17;;;19.00;99.90;21.10;102038.00;;;;5113267;27;20214;-68
2023/06/02 14:16:08;;;;;;;5.25;2.35;;;18.50;99.90;21.50;102039.00;;;;5110819;27;20265;-67
2023/06/02 14:19:06;;;;;;;1.17;1.08;;;18.90;99.90;22.10;102015.00;;;;5090297;28;20231;-67
2023/06/02 14:21:49;;;;;;;3.42;2.10;;;18.90;99.90;21.50;102017.00;;;;5072913;28;20661;-67
2023/06/02 14:25:01;;;;;;;0.68;0.68;;;19.10;99.90;21.80;102017.00;;;;5095999;27;20324;-67
2023/06/02 14:27:50;;;;;;;0.82;0.82;;;19.10;99.90;21.60;102023.00;;;;5105468;27;20179;-72
2023/06/02 14:30:27;;;;;;;2.80;0.90;;;19.20;99.90;21.50;102028.00;;;;5109404;28;20187;-67
2023/06/02 14:33:13;;;;;;;7.63;1.55;;;19.10;99.90;22.10;102011.00;;;;5096815;28;20214;-68
2023/06/02 14:36:08;;;;;;;0.80;0.80;;;19.20;99.90;22.40;102008.00;;;;5116654;28;20283;-69
2023/06/02 14:38:42;;;;;;;1.85;1.25;;;19.30;99.90;22.30;101992.00;;;;5103695;28;20196;-69
2023/06/02 14:41:32;;;;;;;1.98;1.77;;;19.60;99.90;21.90;102017.00;;;;5102667;28;20184;-68
2023/06/02 14:44:22;;;;;;;1.27;1.23;;;19.60;99.90;22.10;101992.00;;;;5080207;28;20184;-67
2023/06/02 14:47:33;;;;;;;2.85;1.17;;;19.50;99.90;21.90;102017.00;;;;5057866;28;20278;-67
2023/06/02 14:50:03;;;;;;;0.80;0.63;;;19.70;99.90;22.00;102009.00;;;;5104380;28;20222;-69
2023/06/02 14:52:29;;;;;;;0.75;0.75;;;19.50;99.90;22.90;101992.00;;;;5107468;28;20203;-69
2023/06/02 14:54:55;;;;;;;1.20;1.13;;;19.80;99.90;22.20;101998.00;;;;5105113;28;20184;-69
2023/06/02 14:57:22;;;;;;;0.63;0.63;;;19.70;99.90;22.40;102004.00;;;;5128413;28;20187;-68
2023/06/02 14:59:48;;;;;;;1.55;1.30;;;19.70;99.90;21.40;102009.00;;;;5084403;28;20811;-68
2023/06/02 15:02:15;;;;;;;0.73;0.73;;;19.50;99.90;21.60;102010.00;;;;5087645;28;20179;-69
2023/06/02 15:04:54;;;;;;;1.73;1.30;;;19.20;99.90;21.90;102006.00;;;;5126186;28;20232;-69
2023/06/02 15:07:21;;;;;;;1.40;1.30;;;19.30;99.90;21.70;102010.00;;;;5100462;28;20329;-69
2023/06/02 15:09:48;;;;;;;0.22;0.22;;;19.20;99.90;22.30;101990.00;;;;5120508;28;20203;-70
2023/06/02 15:12:14;;;;;;;0.95;0.80;;;19.30;99.90;22.40;101992.00;;;;5094485;28;20528;-70
2023/06/02 15:14:41;;;;;;;1.27;1.17;;;19.60;99.90;22.50;101989.00;;;;5075321;28;20227;-70
2023/06/02 15:17:07;;;;;;;1.67;1.38;;;19.70;99.90;21.30;101999.00;;;;5120818;28;20642;-69
2023/06/02 15:19:35;;;;;;;2.97;0.43;;;19.30;99.90;22.10;101985.00;;;;5101001;27;20182;-70
2023/06/02 15:22:01;;;;;;;1.98;1.35;;;19.20;99.90;22.00;102000.00;;;;5100590;27;20188;-69
2023/06/02 15:24:26;;;;;;;3.72;1.25;;;19.40;99.90;21.40;101990.00;;;;5131988;27;20214;-69
2023/06/02 15:27:28;;;;;;;1.58;1.48;;;19.20;99.90;22.30;101984.00;;;;5128937;27;20509;-70
2023/06/02 15:29:56;;;;;;;0.20;0.20;;;19.30;99.90;22.10;101984.00;;;;5090830;28;20680;-70
2023/06/02 15:32:24;;;;;;;0.60;0.60;;;19.40;99.90;22.50;101979.00;;;;5076179;28;20220;-70
2023/06/02 15:35:12;;;;;;;1.38;0.98;;;19.60;99.90;22.20;101983.00;;;;5080212;27;20184;-68
2023/06/02 15:37:38;;;;;;;1.42;1.33;;;19.60;99.90;22.00;101985.00;;;;5100893;28;20256;-70
2023/06/02 15:40:04;;;;;;;0.55;0.55;;;19.50;99.90;21.80;101994.00;;;;5121994;27;20180;-71
2023/06/02 15:42:30;;;;;;;1.92;1.83;;;19.40;99.90;22.20;101986.00;;;;5118702;27;20199;-71
2023/06/02 15:44:56;;;;;;;3.63;0.82;;;19.40;99.90;21.70;101983.00;;;;5112315;27;20600;-71
2023/06/02 15:47:22;;;;;;;0.88;0.85;;;19.20;99.90;21.80;101992.00;;;;5092671;28;20188;-70
2023/06/02 15:49:48;;;;;;;0.57;0.57;;;19.30;99.90;22.30;101974.00;;;;5088109;28;20180;-71
2023/06/02 15:52:14;;;;;;;0.25;0.25;;;19.50;99.90;22.40;101960.00;;;;5114918;27;20268;-71
2023/06/02 15:54:43;;;;;;;6.53;0.93;;;19.50;99.90;22.30;101921.00;;;;5098207;27;20184;-71
2023/06/02 15:57:12;;;;;;;2.15;1.10;;;19.70;99.90;22.00;101973.00;;;;5094288;27;20176;-71
2023/06/02 15:59:40;;;;;;;3.13;1.00;;;19.70;99.90;22.00;101966.00;;;;5091049;28;20233;-70
2023/06/02 16:02:09;;;;;;;0.43;0.43;;;19.60;99.90;22.50;101967.00;;;;5100467;27;20187;-68
2023/06/02 16:05:17;;;;;;;0.22;0.22;;;19.60;99.90;22.40;101953.00;;;;5125886;27;20701;-70
2023/06/02 16:08:42;;;;;;;1.00;0.90;;;19.90;99.90;22.50;101919.00;;;;5089990;28;20172;-70
2023/06/02 16:11:49;;;;;;;0.40;0.40;;;19.80;99.90;21.80;101972.00;;;;5083281;28;20259;-69
2023/06/02 16:14:19;;;;;;;0.30;0.30;;;19.30;99.90;22.00;101945.00;;;;5093127;27;20676;-68
2023/06/02 16:16:47;;;;;;;2.88;1.67;;;19.30;99.90;22.20;101952.00;;;;5089993;28;20188;-69
2023/06/02 16:19:43;;;;;;;0.28;0.25;;;19.50;99.90;22.40;101975.00;;;;5117493;27;20630;-69
2023/06/02 16:22:09;;;;;;;1.10;1.05;;;19.60;99.90;22.20;101929.00;;;;5077921;28;20193;-69
2023/06/02 16:24:40;;;;;;;0.35;0.35;;;19.50;99.90;21.80;101962.00;;;;5095134;27;20188;-69
2023/06/02 16:27:41;;;;;;;1.73;1.35;;;19.50;99.90;21.90;101962.00;;;;5100539;28;20188;-69
2023/06/02 16:30:54;;;;;;;0.70;0.70;;;19.40;99.90;22.80;101941.00;;;;5070927;28;20176;-68
2023/06/02 16:34:00;;;;;;;2.00;1.02;;;19.50;99.90;22.70;101940.00;;;;5058352;28;20212;-67
2023/06/02 16:36:54;;;;;;;3.72;1.95;;;19.70;99.90;22.60;101951.00;;;;5110634;27;20211;-69
2023/06/02 16:39:29;;;;;;;2.38;1.65;;;19.90;99.90;22.40;101976.00;;;;5105909;28;20187;-69
2023/06/02 16:42:59;;;;;;;1.58;1.08;;;19.90;99.90;22.10;101971.00;;;;5084873;27;20195;-67
2023/06/02 16:46:07;;;;;;;1.08;0.90;;;19.80;99.90;23.00;101953.00;;;;5116589;27;20236;-67
2023/06/02 16:48:54;;;;;;;3.47;1.92;;;19.90;99.90;21.00;101973.00;;;;5092839;27;20179;-67
2023/06/02 16:51:57;;;;;;;0.55;0.40;;;19.40;99.90;21.90;101969.00;;;;5094696;27;20516;-67
2023/06/02 16:55:01;;;;;;;0.75;0.70;;;19.10;99.90;22.30;101963.00;;;;5094033;28;20191;-68
2023/06/02 16:57:53;;;;;;;5.60;1.33;;;19.40;99.90;22.40;101963.00;;;;5113976;27;20213;-68
2023/06/02 17:00:19;;;;;;;6.05;2.03;;;19.70;99.90;22.10;101955.00;;;;5083372;28;20185;-68
2023/06/02 17:03:24;;;;;;;1.95;1.48;;;19.60;99.90;22.60;101955.00;;;;5115103;27;20184;-68
2023/06/02 17:06:02;;;;;;;0.85;0.85;;;19.70;99.90;22.30;101950.00;;;;5078598;28;20188;-68
2023/06/02 17:08:27;;;;;;;3.72;3.40;;;19.70;99.90;21.80;101966.00;;;;5079669;28;20215;-68
2023/06/02 17:10:53;;;;;;;2.92;1.50;;;19.50;99.90;21.50;101982.00;;;;5082652;28;20218;-68
2023/06/02 17:13:19;;;;;;;1.45;1.35;;;19.30;99.90;21.50;101926.00;;;;5087466;28;20195;-68
2023/06/02 17:15:45;;;;;;;0.47;0.47;;;19.20;99.90;21.80;101963.00;;;;5123350;27;20189;-68
2023/06/02 17:18:11;;;;;;;0.60;0.60;;;19.10;99.90;22.00;101957.00;;;;5092044;28;20180;-68
2023/06/02 17:20:37;;;;;;;0.80;0.80;;;19.30;99.90;21.80;101918.00;;;;5091025;28;20565;-68
2023/06/02 17:23:03;;;;;;;5.50;2.00;;;19.30;99.90;21.50;101966.00;;;;5105447;28;20550;-68
2023/06/02 17:25:29;;;;;;;1.65;1.17;;;19.30;99.90;22.30;101957.00;;;;5101712;28;20199;-67
2023/06/02 17:27:58;;;;;;;2.25;1.35;;;19.40;99.90;21.80;101954.00;;;;5098708;28;20179;-68
2023/06/02 17:30:25;;;;;;;0.85;0.85;;;19.20;99.90;22.20;101949.00;;;;5102102;28;20206;-67
2023/06/02 17:32:51;;;;;;;1.73;0.85;;;19.30;99.90;21.10;101978.00;;;;5109840;27;20215;-68
2023/06/02 17:35:17;;;;;;;0.32;0.32;;;19.10;99.90;21.70;101961.00;;;;5112536;27;20349;-68
2023/06/02 17:37:49;;;;;;;3.55;2.88;;;19.10;99.90;21.90;101921.00;;;;5118084;27;20237;-68
2023/06/02 17:40:36;;;;;;;4.47;1.70;;;19.20;99.90;21.60;101967.00;;;;5106162;28;20218;-68
2023/06/02 17:43:07;;;;;;;0.63;0.63;;;19.00;99.90;21.60;101964.00;;;;5104062;27;20549;-68
2023/06/02 17:45:36;;;;;;;1.02;0.88;;;19.00;99.90;21.50;101962.00;;;;5079814;28;20282;-68
2023/06/02 17:48:04;;;;;;;2.25;1.48;;;19.00;99.90;21.40;101969.00;;;;5082450;28;20187;-68
2023/06/02 17:50:30;;;;;;;1.23;1.00;;;19.10;99.90;21.50;101931.00;;;;5078755;28;20219;-68
2023/06/02 17:53:12;;;;;;;0.32;0.32;;;19.00;99.90;21.60;101971.00;;;;5078482;28;20246;-68
2023/06/02 17:55:38;;;;;;;0.30;0.30;;;19.00;99.90;21.60;101966.00;;;;5100586;27;20207;-68
2023/06/02 17:58:05;;;;;;;0.20;0.20;;;19.00;99.90;22.00;101954.00;;;;5099102;28;20191;-68
2023/06/02 18:00:31;;;;;;;0.75;0.75;;;19.10;99.90;21.00;101968.00;;;;5109274;27;20182;-68
2023/06/02 18:02:57;;;;;;;0.63;0.55;;;18.90;99.90;21.20;101967.00;;;;5088131;28;20191;-68
2023/06/02 18:05:23;;;;;;;0.50;0.30;;;18.90;99.90;21.80;101949.00;;;;5097859;28;20202;-68
2023/06/02 18:07:59;;;;;;;8.18;1.90;;;19.00;99.90;21.70;101964.00;;;;5089099;28;20187;-68
2023/06/02 18:10:51;;;;;;;0.70;0.70;;;19.10;99.90;21.20;101984.00;;;;5110336;27;20540;-68
2023/06/02 18:13:51;;;;;;;0.43;0.43;;;19.00;99.90;21.40;101923.00;;;;5100310;27;20268;-68
2023/06/02 18:16:22;;;;;;;0.60;0.60;;;18.90;99.90;21.40;101975.00;;;;5088489;28;20189;-68
2023/06/02 18:18:49;;;;;;;2.75;1.23;;;18.90;99.90;21.50;101970.00;;;;5068237;28;20195;-68
2023/06/02 18:21:50;;;;;;;0.50;0.50;;;18.80;99.90;20.90;101920.00;;;;5104670;28;20184;-68
2023/06/02 18:24:21;;;;;;;0.80;0.80;;;18.80;99.90;21.40;101967.00;;;;5103749;28;20263;-68
2023/06/02 18:27:16;;;;;;;2.15;1.38;;;18.80;99.90;21.60;101950.00;;;;5102530;28;20192;-68
2023/06/02 18:29:43;;;;;;;0.45;0.45;;;18.90;99.90;21.90;101943.00;;;;5085951;28;20713;-68
2023/06/02 18:32:18;;;;;;;1.75;0.43;;;19.00;99.90;21.80;101949.00;;;;5102287;28;20234;-68
2023/06/02 18:35:07;;;;;;;0.70;0.70;;;19.10;99.90;21.10;101953.00;;;;5067235;28;20307;-68
2023/06/02 18:38:08;;;;;;;0.60;0.60;;;19.00;99.90;21.90;101950.00;;;;5102448;28;20192;-68
2023/06/02 18:40:55;;;;;;;0.35;0.32;;;19.00;99.90;22.00;101944.00;;;;5110616;28;20190;-68
2023/06/02 18:43:23;;;;;;;0.10;0.10;;;19.00;99.90;22.80;101947.00;;;;5080451;28;20655;-68
2023/06/02 18:46:09;;;;;;;1.98;1.92;;;19.20;99.90;21.80;101958.00;;;;5085449;28;20259;-68
2023/06/02 18:49:15;;;;;;;0.40;0.40;;;19.10;99.90;21.80;101948.00;;;;5102669;28;20259;-68
2023/06/02 18:52:24;;;;;;;1.17;0.57;;;19.10;99.90;22.10;101953.00;;;;5085156;28;20283;-68
2023/06/02 18:55:31;;;;;;;0.68;0.68;;;19.10;99.90;22.10;101956.00;;;;5066274;28;20557;-68
2023/06/02 18:58:15;;;;;;;0.10;0.10;;;18.90;99.90;22.00;101950.00;;;;5089911;28;20191;-68
2023/06/02 19:00:59;;;;;;;18.27;1.57;;;18.90;99.90;21.60;101959.00;;;;5107113;27;20179;-68
2023/06/02 19:04:00;;;;;;;0.17;0.17;;;18.80;99.90;22.00;101947.00;;;;5086634;28;20610;-68